createdAt,value
2018-11-21T00:01:45.126Z,77.80
2018-11-21T00:04:13.609Z,77.20
2018-11-21T00:06:42.061Z,77.10
2018-11-21T00:09:10.839Z,78.60
2018-11-21T00:11:39.281Z,77.90
2018-11-21T00:14:08.183Z,78.00
2018-11-21T00:16:36.932Z,77.60
2018-11-21T00:19:05.774Z,77.40
2018-11-21T00:21:34.439Z,77.80
2018-11-21T00:24:02.899Z,77.90
2018-11-21T00:26:31.401Z,77.70
2018-11-21T00:28:59.843Z,78.20
2018-11-21T00:31:28.323Z,79.70
2018-11-21T00:33:56.755Z,80.30
2018-11-21T00:36:25.230Z,81.30
2018-11-21T00:38:53.681Z,81.10
2018-11-21T00:41:22.148Z,80.10
2018-11-21T00:43:50.585Z,80.00
2018-11-21T00:46:19.056Z,81.50
2018-11-21T00:48:47.532Z,80.70
2018-11-21T00:51:16.017Z,80.30
2018-11-21T00:53:44.451Z,80.40
2018-11-21T00:56:12.923Z,79.50
2018-11-21T00:58:41.365Z,79.50
2018-11-21T01:01:09.856Z,78.90
2018-11-21T01:03:38.407Z,78.40
2018-11-21T01:06:07.154Z,78.30
2018-11-21T01:08:35.604Z,78.40
2018-11-21T01:11:04.044Z,79.00
2018-11-21T01:13:32.517Z,79.00
2018-11-21T01:16:00.953Z,79.50
2018-11-21T01:18:29.431Z,79.60
2018-11-21T01:20:57.919Z,80.60
2018-11-21T01:23:26.380Z,81.70
2018-11-21T01:25:54.849Z,84.30
2018-11-21T01:28:23.284Z,84.20
2018-11-21T01:30:51.761Z,84.30
2018-11-21T01:33:20.214Z,85.10
2018-11-21T01:35:48.700Z,85.00
2018-11-21T01:38:17.141Z,86.80
2018-11-21T01:40:45.711Z,86.60
2018-11-21T01:43:14.146Z,84.50
2018-11-21T01:45:42.642Z,84.10
2018-11-21T01:48:11.091Z,83.70
2018-11-21T01:50:39.546Z,84.80
2018-11-21T01:53:08.077Z,85.60
2018-11-21T01:55:36.499Z,84.30
2018-11-21T01:58:05.099Z,84.70
2018-11-21T02:00:33.583Z,83.20
2018-11-21T02:03:02.069Z,83.70
2018-11-21T02:05:30.526Z,83.00
2018-11-21T02:07:59.003Z,82.40
2018-11-21T02:10:27.481Z,82.30
2018-11-21T02:12:55.962Z,82.50
2018-11-21T02:15:24.402Z,82.20
2018-11-21T02:17:52.848Z,82.20
2018-11-21T02:20:21.328Z,83.20
2018-11-21T02:22:49.764Z,83.80
2018-11-21T02:25:18.194Z,82.90
2018-11-21T02:27:46.696Z,82.70
2018-11-21T02:30:15.144Z,82.60
2018-11-21T02:32:43.633Z,83.30
2018-11-21T02:35:12.092Z,83.10
2018-11-21T02:37:40.585Z,83.30
2018-11-21T02:40:09.229Z,82.40
2018-11-21T02:42:37.719Z,82.40
2018-11-21T02:45:06.363Z,81.90
2018-11-21T02:47:34.849Z,81.70
2018-11-21T02:50:03.320Z,82.40
2018-11-21T02:52:31.829Z,82.30
2018-11-21T02:55:00.276Z,81.70
2018-11-21T02:57:30.313Z,81.10
2018-11-21T03:00:01.016Z,80.90
2018-11-21T03:02:29.445Z,80.80
2018-11-21T03:04:57.924Z,82.80
2018-11-21T03:07:26.380Z,82.40
2018-11-21T03:09:54.834Z,83.40
2018-11-21T03:12:23.349Z,83.30
2018-11-21T03:14:51.857Z,84.00
2018-11-21T03:17:20.297Z,84.00
2018-11-21T03:19:48.819Z,83.70
2018-11-21T03:22:17.268Z,82.60
2018-11-21T03:24:45.763Z,82.50
2018-11-21T03:27:14.202Z,82.20
2018-11-21T03:29:42.680Z,83.30
2018-11-21T03:32:11.121Z,83.90
2018-11-21T03:34:39.600Z,85.00
2018-11-21T03:37:08.039Z,84.50
2018-11-21T03:39:36.780Z,83.60
2018-11-21T03:42:05.881Z,83.20
2018-11-21T03:44:34.326Z,82.60
2018-11-21T03:47:02.815Z,82.50
2018-11-21T03:49:31.560Z,82.20
2018-11-21T03:52:00.054Z,82.10
2018-11-21T03:54:28.502Z,82.10
2018-11-21T03:56:57.252Z,82.10
2018-11-21T03:59:25.693Z,81.70
2018-11-21T04:01:54.136Z,83.80
2018-11-21T04:04:22.627Z,83.60
2018-11-21T04:06:51.125Z,83.40
2018-11-21T04:09:19.616Z,82.40
2018-11-21T04:11:48.062Z,82.20
2018-11-21T04:14:16.560Z,81.60
2018-11-21T04:16:44.999Z,81.40
2018-11-21T04:19:13.471Z,81.70
2018-11-21T04:21:41.904Z,82.10
2018-11-21T04:24:10.390Z,81.80
2018-11-21T04:26:38.826Z,81.60
2018-11-21T04:29:07.325Z,81.40
2018-11-21T04:31:35.768Z,81.80
2018-11-21T04:34:04.294Z,81.70
2018-11-21T04:36:33.028Z,81.50
2018-11-21T04:39:01.460Z,81.60
2018-11-21T04:41:29.900Z,81.80
2018-11-21T04:43:58.387Z,81.80
2018-11-21T04:46:26.851Z,81.80
2018-11-21T04:48:55.295Z,82.60
2018-11-21T04:51:23.780Z,83.10
2018-11-21T04:53:52.269Z,83.20
2018-11-21T04:56:20.717Z,82.80
2018-11-21T04:58:49.152Z,82.90
2018-11-21T05:01:17.614Z,82.40
2018-11-21T05:03:46.070Z,81.90
2018-11-21T05:06:14.559Z,81.90
2018-11-21T05:08:43.048Z,82.00
2018-11-21T05:11:11.554Z,82.30
2018-11-21T05:13:39.995Z,82.70
2018-11-21T05:16:08.494Z,82.90
2018-11-21T05:18:36.992Z,83.60
2018-11-21T05:21:05.624Z,83.60
2018-11-21T05:23:34.090Z,83.40
2018-11-21T05:26:02.596Z,83.30
2018-11-21T05:28:31.050Z,83.50
2018-11-21T05:30:59.543Z,84.00
2018-11-21T05:33:28.013Z,83.70
2018-11-21T05:35:56.514Z,82.70
2018-11-21T05:38:25.006Z,82.60
2018-11-21T05:40:53.498Z,82.20
2018-11-21T05:43:22.239Z,82.00
2018-11-21T05:45:50.693Z,81.80
2018-11-21T05:48:19.149Z,81.80
2018-11-21T05:50:47.637Z,81.80
2018-11-21T05:53:16.082Z,81.50
2018-11-21T05:55:44.768Z,81.90
2018-11-21T05:58:13.222Z,81.20
2018-11-21T06:00:41.707Z,82.20
2018-11-21T06:03:10.171Z,83.60
2018-11-21T06:05:38.665Z,85.00
2018-11-21T06:08:07.148Z,84.20
2018-11-21T06:10:35.635Z,83.60
2018-11-21T06:13:04.157Z,84.00
2018-11-21T06:15:32.637Z,84.60
2018-11-21T06:18:01.083Z,83.70
2018-11-21T06:20:29.560Z,84.30
2018-11-21T06:22:58.029Z,84.50
2018-11-21T06:25:26.510Z,83.70
2018-11-21T06:27:54.963Z,83.00
2018-11-21T06:30:23.442Z,83.00
2018-11-21T06:32:51.906Z,83.50
2018-11-21T06:35:20.390Z,84.10
2018-11-21T06:37:48.826Z,84.40
2018-11-21T06:40:17.307Z,84.80
2018-11-21T06:42:58.991Z,84.90
2018-11-21T06:45:28.480Z,85.00
2018-11-21T06:47:56.966Z,85.40
2018-11-21T06:50:25.528Z,86.10
2018-11-21T06:52:55.156Z,85.50
2018-11-21T06:55:23.623Z,85.20
2018-11-21T06:57:52.209Z,84.90
2018-11-21T07:00:20.695Z,84.80
2018-11-21T07:02:49.153Z,84.90
2018-11-21T07:05:17.633Z,85.00
2018-11-21T07:07:46.102Z,84.90
2018-11-21T07:10:15.427Z,85.20
2018-11-21T07:12:44.659Z,84.90
2018-11-21T07:15:13.124Z,86.00
2018-11-21T07:17:41.618Z,85.80
2018-11-21T07:20:11.642Z,85.30
2018-11-21T07:22:40.191Z,85.60
2018-11-21T07:25:17.749Z,84.80
2018-11-21T07:27:46.280Z,85.60
2018-11-21T07:30:15.680Z,85.80
2018-11-21T07:32:44.158Z,84.90
2018-11-21T07:35:17.769Z,85.50
2018-11-21T07:37:41.855Z,84.90
2018-11-21T07:40:11.908Z,84.70
2018-11-21T07:42:40.501Z,85.00
2018-11-21T07:45:10.472Z,84.70
2018-11-21T07:47:39.583Z,84.70
2018-11-21T07:50:10.420Z,84.40
2018-11-21T07:52:38.914Z,84.50
2018-11-21T07:55:07.609Z,84.70
2018-11-21T07:58:01.334Z,85.00
2018-11-21T08:01:02.727Z,84.80
2018-11-21T08:03:48.729Z,85.20
2018-11-21T08:06:19.867Z,84.30
2018-11-21T08:09:05.350Z,83.70
2018-11-21T08:12:04.983Z,84.10
2018-11-21T08:14:58.151Z,84.50
2018-11-21T08:17:54.468Z,83.30
2018-11-21T08:20:57.236Z,82.70
2018-11-21T08:23:43.461Z,82.50
2018-11-21T08:26:33.703Z,82.00
2018-11-21T08:29:02.153Z,81.90
2018-11-21T08:31:30.638Z,81.50
2018-11-21T08:33:59.091Z,81.30
2018-11-21T08:36:27.594Z,81.20
2018-11-21T08:38:56.051Z,81.20
2018-11-21T08:41:24.553Z,81.30
2018-11-21T08:43:53.047Z,81.60
2018-11-21T08:46:21.527Z,81.50
2018-11-21T08:48:49.988Z,81.90
2018-11-21T08:51:18.465Z,80.90
2018-11-21T08:53:46.922Z,80.80
2018-11-21T08:56:15.425Z,80.90
2018-11-21T08:58:43.893Z,80.70
2018-11-21T09:01:12.448Z,80.40
2018-11-21T09:03:40.903Z,79.80
2018-11-21T09:06:09.387Z,79.60
2018-11-21T09:08:37.883Z,79.20
2018-11-21T09:11:06.394Z,79.00
2018-11-21T09:13:34.852Z,79.20
2018-11-21T09:16:03.428Z,79.20
2018-11-21T09:18:34.825Z,79.40
2018-11-21T09:21:55.280Z,79.20
2018-11-21T09:27:22.568Z,78.90
2018-11-21T09:30:04.542Z,78.70
2018-11-21T09:32:46.361Z,79.00
2018-11-21T09:35:27.985Z,78.80
2018-11-21T09:38:09.741Z,78.30
2018-11-21T09:40:50.610Z,78.10
2018-11-21T09:43:32.149Z,78.00
2018-11-21T09:46:17.205Z,78.10
2018-11-21T09:48:54.505Z,77.40
2018-11-21T09:51:36.046Z,77.70
2018-11-21T09:54:16.134Z,75.60
2018-11-21T10:00:05.232Z,74.00
2018-11-21T10:02:46.379Z,73.30
2018-11-21T10:05:27.491Z,72.00
2018-11-21T10:08:08.351Z,71.70
2018-11-21T10:10:49.515Z,71.40
2018-11-21T10:13:31.506Z,71.10
2018-11-21T10:16:13.029Z,70.70
2018-11-21T10:18:55.413Z,70.30
2018-11-21T10:21:37.230Z,70.70
2018-11-21T10:24:18.485Z,71.00
2018-11-21T10:27:00.005Z,70.80
2018-11-21T10:29:41.470Z,71.10
2018-11-21T10:32:22.694Z,71.80
2018-11-21T10:35:04.162Z,72.50
2018-11-21T10:37:45.233Z,72.50
2018-11-21T10:40:27.614Z,72.80
2018-11-21T10:43:08.705Z,72.80
2018-11-21T10:45:49.550Z,73.30
2018-11-21T10:48:31.247Z,74.70
2018-11-21T10:51:12.169Z,74.60
2018-11-21T10:53:52.439Z,73.60
2018-11-21T10:59:33.972Z,72.30
2018-11-21T11:02:34.182Z,71.00
2018-11-21T11:05:34.311Z,70.70
2018-11-21T11:08:34.273Z,69.70
2018-11-21T11:11:34.495Z,68.60
2018-11-21T11:14:37.553Z,68.80
2018-11-21T11:17:40.187Z,69.00
2018-11-21T11:20:21.780Z,69.00
2018-11-21T11:23:21.831Z,69.00
2018-11-21T11:26:21.597Z,68.70
2018-11-21T11:29:21.465Z,68.50
2018-11-21T11:35:31.042Z,68.30
2018-11-21T11:44:53.785Z,67.00
2018-11-21T11:47:53.472Z,65.90
2018-11-21T11:50:53.702Z,65.80
2018-11-21T11:53:56.489Z,65.30
2018-11-21T11:56:49.367Z,64.50
2018-11-21T11:59:50.221Z,63.80
2018-11-21T12:02:37.620Z,62.40
2018-11-21T12:05:25.758Z,62.00
2018-11-21T12:08:19.900Z,61.10
2018-11-21T12:11:14.291Z,60.30
2018-11-21T12:14:01.487Z,58.90
2018-11-21T12:16:48.937Z,58.60
2018-11-21T12:19:40.181Z,59.10
2018-11-21T12:22:37.702Z,59.20
2018-11-21T12:25:25.417Z,59.80
2018-11-21T12:28:14.030Z,58.80
2018-11-21T12:31:01.203Z,57.20
2018-11-21T12:33:49.809Z,56.00
2018-11-21T12:36:41.270Z,55.80
2018-11-21T12:39:35.846Z,55.70
2018-11-21T12:42:30.311Z,54.30
2018-11-21T12:45:21.926Z,53.30
2018-11-21T12:47:59.835Z,53.60
2018-11-21T12:50:41.670Z,53.40
2018-11-21T12:53:36.486Z,53.50
2018-11-21T12:56:40.091Z,53.90
2018-11-21T12:59:18.766Z,53.60
2018-11-21T13:02:10.166Z,52.50
2018-11-21T13:04:57.310Z,51.40
2018-11-21T13:07:46.138Z,52.00
2018-11-21T13:10:33.154Z,52.50
2018-11-21T13:13:33.549Z,54.20
2018-11-21T13:16:20.774Z,54.80
2018-11-21T13:19:18.166Z,55.90
2018-11-21T13:22:05.493Z,56.80
2018-11-21T13:24:52.709Z,57.40
2018-11-21T13:27:41.439Z,57.90
2018-11-21T13:30:33.540Z,58.10
2018-11-21T13:33:29.659Z,58.80
2018-11-21T13:36:16.810Z,59.30
2018-11-21T13:39:03.672Z,59.60
2018-11-21T13:41:50.998Z,59.70
2018-11-21T13:44:30.045Z,60.30
2018-11-21T13:47:18.777Z,60.40
2018-11-21T13:50:18.726Z,60.30
2018-11-21T13:53:05.850Z,60.40
2018-11-21T13:55:37.468Z,60.70
2018-11-21T13:58:07.593Z,61.00
2018-11-21T14:00:37.546Z,61.20
2018-11-21T14:03:07.897Z,61.20
2018-11-21T14:05:38.904Z,61.30
2018-11-21T14:08:08.984Z,61.80
2018-11-21T14:10:38.941Z,62.20
2018-11-21T14:13:09.021Z,62.20
2018-11-21T14:15:38.970Z,62.50
2018-11-21T14:18:09.085Z,62.70
2018-11-21T14:20:39.042Z,63.10
2018-11-21T14:23:09.121Z,63.30
2018-11-21T14:25:39.079Z,63.40
2018-11-21T14:28:09.057Z,63.20
2018-11-21T14:30:39.018Z,63.70
2018-11-21T14:33:09.014Z,64.20
2018-11-21T14:35:38.997Z,64.20
2018-11-21T14:38:09.088Z,64.50
2018-11-21T14:40:39.146Z,64.70
2018-11-21T14:43:09.238Z,64.80
2018-11-21T14:45:39.301Z,65.40
2018-11-21T14:48:09.306Z,65.30
2018-11-21T14:50:40.247Z,65.50
2018-11-21T14:53:10.350Z,65.60
2018-11-21T14:55:40.406Z,65.70
2018-11-21T14:58:10.490Z,65.40
2018-11-21T15:00:40.537Z,65.90
2018-11-21T15:03:10.596Z,66.20
2018-11-21T15:05:40.540Z,66.60
2018-11-21T15:08:10.515Z,67.00
2018-11-21T15:10:40.486Z,67.00
2018-11-21T15:13:10.562Z,67.90
2018-11-21T15:15:40.519Z,67.30
2018-11-21T15:18:10.573Z,67.00
2018-11-21T15:20:40.503Z,66.90
2018-11-21T15:23:10.486Z,66.90
2018-11-21T15:25:40.437Z,67.20
2018-11-21T15:28:10.433Z,67.30
2018-11-21T15:30:40.484Z,67.50
2018-11-21T15:33:10.542Z,67.70
2018-11-21T15:35:40.485Z,67.50
2018-11-21T15:38:10.482Z,67.80
2018-11-21T15:40:40.841Z,67.80
2018-11-21T15:43:10.474Z,68.20
2018-11-21T15:45:40.570Z,68.00
2018-11-21T15:48:10.598Z,68.10
2018-11-21T15:50:40.543Z,68.60
2018-11-21T15:53:10.479Z,68.70
2018-11-21T15:55:40.564Z,69.00
2018-11-21T15:58:10.672Z,69.10
2018-11-21T16:00:40.777Z,69.30
2018-11-21T16:03:11.619Z,69.30
2018-11-21T16:05:41.714Z,69.20
2018-11-21T16:08:11.909Z,69.40
2018-11-21T16:10:43.485Z,69.30
2018-11-21T16:13:13.456Z,69.70
2018-11-21T16:15:46.217Z,69.30
2018-11-21T16:18:16.955Z,69.80
2018-11-21T16:20:47.001Z,69.80
2018-11-21T16:23:17.189Z,69.50
2018-11-21T16:25:47.283Z,69.60
2018-11-21T16:28:17.247Z,69.70
2018-11-21T16:30:47.230Z,69.90
2018-11-21T16:33:17.191Z,70.00
2018-11-21T16:35:47.300Z,69.80
2018-11-21T16:38:17.409Z,69.90
2018-11-21T16:40:47.522Z,69.90
2018-11-21T16:43:17.586Z,70.00
2018-11-21T16:45:49.949Z,70.40
2018-11-21T16:48:19.911Z,70.20
2018-11-21T16:50:49.912Z,70.20
2018-11-21T16:53:19.980Z,70.40
2018-11-21T16:55:50.064Z,70.70
2018-11-21T16:58:20.129Z,70.60
2018-11-21T17:00:50.326Z,70.70
2018-11-21T17:03:20.276Z,71.00
2018-11-21T17:05:50.258Z,70.60
2018-11-21T17:08:20.200Z,70.70
2018-11-21T17:10:50.266Z,71.20
2018-11-21T17:13:20.205Z,71.20
2018-11-21T17:15:50.190Z,71.30
2018-11-21T17:18:20.122Z,71.00
2018-11-21T17:20:50.106Z,71.10
2018-11-21T17:23:20.145Z,70.90
2018-11-21T17:25:50.077Z,71.00
2018-11-21T17:28:20.469Z,71.60
2018-11-21T17:30:50.536Z,71.70
2018-11-21T17:33:20.553Z,71.30
2018-11-21T17:35:50.546Z,71.70
2018-11-21T17:38:20.538Z,71.80
2018-11-21T17:40:50.558Z,71.60
2018-11-21T17:43:20.498Z,71.60
2018-11-21T17:45:50.474Z,71.30
2018-11-21T17:48:20.423Z,71.50
2018-11-21T17:50:50.495Z,71.70
2018-11-21T17:53:20.433Z,72.00
2018-11-21T17:55:50.495Z,72.50
2018-11-21T17:58:20.454Z,72.90
2018-11-21T18:00:50.532Z,73.80
2018-11-21T18:03:20.524Z,74.10
2018-11-21T18:05:50.518Z,73.70
2018-11-21T18:08:20.464Z,73.70
2018-11-21T18:10:50.478Z,73.80
2018-11-21T18:13:20.454Z,74.10
2018-11-21T18:15:50.458Z,75.00
2018-11-21T18:18:20.529Z,74.70
2018-11-21T18:20:50.527Z,75.90
2018-11-21T18:23:20.589Z,75.30
2018-11-21T18:25:50.686Z,75.90
2018-11-21T18:28:20.650Z,75.60
2018-11-21T18:30:51.477Z,74.80
2018-11-21T18:33:21.469Z,75.60
2018-11-21T18:35:51.480Z,76.20
2018-11-21T18:38:21.440Z,75.70
2018-11-21T18:40:51.490Z,76.60
2018-11-21T18:43:21.482Z,76.60
2018-11-21T18:45:52.449Z,77.20
2018-11-21T18:48:22.512Z,76.50
2018-11-21T18:50:52.576Z,76.80
2018-11-21T18:53:22.688Z,77.90
2018-11-21T18:56:09.341Z,77.50
2018-11-21T18:59:01.155Z,77.50
2018-11-21T19:01:31.221Z,78.00
2018-11-21T19:04:01.176Z,77.50
2018-11-21T19:06:31.190Z,77.10
2018-11-21T19:09:01.153Z,77.00
2018-11-21T19:11:31.247Z,77.00
2018-11-21T19:14:01.333Z,76.80
2018-11-21T19:16:31.443Z,77.20
2018-11-21T19:19:01.481Z,77.00
2018-11-21T19:21:31.451Z,76.70
2018-11-21T19:24:01.582Z,76.50
2018-11-21T19:26:31.576Z,76.50
2018-11-21T19:29:01.757Z,76.30
2018-11-21T19:31:31.815Z,76.30
2018-11-21T19:34:01.920Z,76.30
2018-11-21T19:36:32.051Z,76.20
2018-11-21T19:39:02.173Z,76.50
2018-11-21T19:41:32.119Z,76.80
2018-11-21T19:44:02.250Z,76.90
2018-11-21T19:46:32.307Z,76.60
2018-11-21T19:49:02.339Z,76.90
2018-11-21T19:51:32.382Z,77.00
2018-11-21T19:54:02.554Z,77.20
2018-11-21T19:56:32.661Z,76.80
2018-11-21T19:59:02.728Z,77.00
2018-11-21T20:01:32.800Z,77.20
2018-11-21T20:04:02.853Z,77.10
2018-11-21T20:06:32.848Z,76.60
2018-11-21T20:09:02.867Z,76.60
2018-11-21T20:11:32.908Z,76.40
2018-11-21T20:14:02.979Z,76.10
2018-11-21T20:16:33.292Z,76.30
2018-11-21T20:19:03.278Z,76.30
2018-11-21T20:21:33.232Z,76.60
2018-11-21T20:24:03.290Z,76.40
2018-11-21T20:26:33.242Z,76.50
2018-11-21T20:29:03.533Z,76.40
2018-11-21T20:31:33.794Z,76.30
2018-11-21T20:34:03.964Z,76.90
2018-11-21T20:36:34.161Z,76.50
2018-11-21T20:39:05.987Z,76.50
2018-11-21T20:41:36.030Z,76.80
2018-11-21T20:44:06.408Z,77.10
2018-11-21T20:46:36.357Z,77.00
2018-11-21T20:49:11.283Z,77.00
2018-11-21T20:51:36.682Z,77.20
2018-11-21T20:54:06.778Z,77.10
2018-11-21T20:56:36.813Z,77.10
2018-11-21T20:59:07.138Z,76.80
2018-11-21T21:01:37.082Z,76.80
2018-11-21T21:04:07.090Z,76.80
2018-11-21T21:06:37.201Z,77.10
2018-11-21T21:09:11.757Z,77.10
2018-11-21T21:11:41.794Z,76.90
2018-11-21T21:14:11.949Z,77.20
2018-11-21T21:16:41.967Z,77.20
2018-11-21T21:19:12.037Z,77.30
2018-11-21T21:21:42.020Z,77.70
2018-11-21T21:24:11.994Z,77.70
2018-11-21T21:26:42.062Z,78.00
2018-11-21T21:29:12.037Z,78.10
2018-11-21T21:31:42.088Z,78.10
2018-11-21T21:34:12.154Z,78.20
2018-11-21T21:36:42.208Z,77.90
2018-11-21T21:39:13.190Z,78.00
2018-11-21T21:41:43.225Z,78.10
2018-11-21T21:44:13.195Z,78.10
2018-11-21T21:46:45.796Z,78.00
2018-11-21T21:49:15.781Z,78.40
2018-11-21T21:51:45.798Z,78.90
2018-11-21T21:54:15.783Z,78.80
2018-11-21T21:56:45.801Z,78.90
2018-11-21T21:59:15.791Z,78.40
2018-11-21T22:01:45.743Z,78.50
2018-11-21T22:04:15.728Z,78.60
2018-11-21T22:06:45.718Z,79.50
2018-11-21T22:09:15.761Z,79.50
2018-11-21T22:11:45.804Z,79.20
2018-11-21T22:14:15.898Z,79.00
2018-11-21T22:16:45.936Z,79.10
2018-11-21T22:19:16.094Z,78.80
2018-11-21T22:21:46.036Z,78.90
2018-11-21T22:24:16.091Z,79.00
2018-11-21T22:26:46.031Z,78.70
2018-11-21T22:29:16.002Z,78.90
2018-11-21T22:31:45.953Z,79.10
2018-11-21T22:34:16.018Z,78.90
2018-11-21T22:36:45.950Z,78.80
2018-11-21T22:39:15.944Z,78.70
2018-11-21T22:41:45.961Z,78.70
2018-11-21T22:44:15.914Z,79.10
2018-11-21T22:46:45.846Z,78.80
2018-11-21T22:49:15.827Z,79.20
2018-11-21T22:51:47.675Z,79.00
2018-11-21T22:54:15.813Z,79.50
2018-11-21T22:56:46.012Z,79.50
2018-11-21T22:59:15.974Z,79.40
2018-11-21T23:01:46.023Z,79.10
2018-11-21T23:04:16.028Z,79.30
2018-11-21T23:06:46.021Z,79.30
2018-11-21T23:09:16.094Z,79.50
2018-11-21T23:11:46.149Z,79.60
2018-11-21T23:14:16.221Z,79.40
2018-11-21T23:16:46.160Z,79.50
2018-11-21T23:19:16.138Z,79.40
2018-11-21T23:21:46.227Z,79.30
2018-11-21T23:24:16.155Z,79.30
2018-11-21T23:26:46.192Z,79.60
2018-11-21T23:29:16.179Z,79.90
2018-11-21T23:31:46.221Z,79.80
2018-11-21T23:34:16.308Z,79.90
2018-11-21T23:36:46.326Z,79.90
2018-11-21T23:39:16.364Z,80.00
2018-11-21T23:41:48.077Z,80.10
2018-11-21T23:44:21.203Z,79.90
2018-11-21T23:46:53.182Z,79.90
2018-11-21T23:49:23.167Z,80.00
2018-11-21T23:51:53.291Z,79.90
2018-11-21T23:54:23.352Z,80.10
2018-11-21T23:57:15.757Z,80.00
2018-11-21T23:59:23.374Z,80.00
